Time;durP1;ratioP1;P1;durP2;ratioP2;P2;SDS_P1;SDS_P2;PMS_P1;PMS_P2;Temp;Humidity;BMP_temperature;BMP_pressure;BME280_temperature;BME280_humidity;BME280_pressure;Samples;Min_cycle;Max_cycle;Signal;HPM_P1;HPM_P2
2024/01/18 00:02:05;;;;;;;22.55;15.85;;;3.80;99.90;;;;;;4899567;29;20222;-81
2024/01/18 00:04:34;;;;;;;17.40;14.13;;;3.80;99.90;;;;;;4898850;29;20230;-81
2024/01/18 00:07:01;;;;;;;21.77;15.63;;;3.80;99.90;;;;;;4899197;29;20226;-78
2024/01/18 00:09:28;;;;;;;18.05;14.60;;;3.80;99.90;;;;;;4899187;29;20222;-77
2024/01/18 00:11:57;;;;;;;20.92;13.63;;;3.70;99.90;;;;;;4899267;29;20226;-78
2024/01/18 00:14:25;;;;;;;18.60;14.23;;;3.70;99.90;;;;;;4899415;29;20226;-82
2024/01/18 00:16:52;;;;;;;17.48;15.18;;;3.80;99.90;;;;;;4898861;29;20229;-82
2024/01/18 00:19:19;;;;;;;17.55;13.93;;;3.70;99.90;;;;;;4899091;29;20230;-82
2024/01/18 00:21:47;;;;;;;17.40;15.50;;;3.80;99.90;;;;;;4898482;29;20254;-81
2024/01/18 00:24:17;;;;;;;18.58;14.93;;;3.80;99.90;;;;;;4899275;29;20230;-82
2024/01/18 00:26:44;;;;;;;16.50;13.40;;;3.80;99.90;;;;;;4898719;29;20707;-78
2024/01/18 00:29:13;;;;;;;15.57;13.98;;;3.80;99.90;;;;;;4899082;29;20309;-78
2024/01/18 00:31:40;;;;;;;20.80;14.10;;;3.80;99.90;;;;;;4898496;29;20317;-78
2024/01/18 00:34:07;;;;;;;20.08;15.48;;;3.70;99.90;;;;;;4898875;29;20237;-78
2024/01/18 00:36:35;;;;;;;17.63;12.93;;;3.70;99.90;;;;;;4887601;29;20710;-77
2024/01/18 00:39:09;;;;;;;17.38;14.95;;;3.70;99.90;;;;;;4897992;29;20566;-81
2024/01/18 00:41:37;;;;;;;17.33;14.52;;;3.70;99.90;;;;;;4898555;29;20224;-81
2024/01/18 00:44:05;;;;;;;19.80;15.07;;;3.70;99.90;;;;;;4898596;29;20301;-77
2024/01/18 00:46:32;;;;;;;15.90;14.15;;;3.70;99.90;;;;;;4898797;29;20309;-77
2024/01/18 00:48:59;;;;;;;16.65;14.20;;;3.70;99.90;;;;;;4898087;29;20256;-77
2024/01/18 00:51:26;;;;;;;15.65;13.70;;;3.70;99.90;;;;;;4898542;29;20673;-78
2024/01/18 00:53:53;;;;;;;18.00;14.40;;;3.60;99.90;;;;;;4897461;29;20250;-78
2024/01/18 00:56:21;;;;;;;20.80;14.98;;;3.60;99.90;;;;;;4898566;29;20245;-78
2024/01/18 00:58:51;;;;;;;18.17;13.30;;;3.60;99.90;;;;;;4897947;29;20249;-78
2024/01/18 01:01:18;;;;;;;15.75;13.45;;;3.60;99.90;;;;;;4898145;29;20543;-81
2024/01/18 01:03:45;;;;;;;16.55;13.68;;;3.60;99.90;;;;;;4897668;29;20244;-78
2024/01/18 01:06:12;;;;;;;20.42;13.00;;;3.60;99.90;;;;;;4898281;29;20234;-82
2024/01/18 01:08:41;;;;;;;19.13;15.70;;;3.60;99.90;;;;;;4898459;29;20217;-78
2024/01/18 01:11:08;;;;;;;16.00;14.23;;;3.60;99.90;;;;;;4898063;29;20246;-81
2024/01/18 01:13:37;;;;;;;20.77;15.25;;;3.60;99.90;;;;;;4897974;29;20234;-81
2024/01/18 01:16:04;;;;;;;18.85;14.80;;;3.60;99.90;;;;;;4897414;29;20233;-82
2024/01/18 01:18:31;;;;;;;20.02;14.88;;;3.60;99.90;;;;;;4896854;29;20689;-82
2024/01/18 01:20:58;;;;;;;14.98;12.90;;;3.60;99.90;;;;;;4897630;29;20264;-81
2024/01/18 01:23:25;;;;;;;18.73;14.57;;;3.60;99.90;;;;;;4898368;29;20566;-78
2024/01/18 01:25:52;;;;;;;17.90;16.02;;;3.60;99.90;;;;;;4897919;29;20573;-81
2024/01/18 01:28:19;;;;;;;20.10;14.05;;;3.50;99.90;;;;;;4898302;29;20688;-82
2024/01/18 01:30:48;;;;;;;18.30;14.60;;;3.60;99.90;;;;;;4896966;29;20707;-78
2024/01/18 01:33:15;;;;;;;17.60;14.98;;;3.60;99.90;;;;;;4898054;29;20245;-82
2024/01/18 01:35:42;;;;;;;17.88;13.75;;;3.60;99.90;;;;;;4898265;29;20229;-82
2024/01/18 01:38:09;;;;;;;18.63;14.07;;;3.60;99.90;;;;;;4897954;29;20528;-78
2024/01/18 01:40:36;;;;;;;22.45;14.73;;;3.60;99.90;;;;;;4897683;29;20237;-78
2024/01/18 01:43:03;;;;;;;20.77;15.82;;;3.60;99.90;;;;;;4897080;29;20238;-78
2024/01/18 01:45:31;;;;;;;20.48;13.93;;;3.60;99.90;;;;;;4898539;29;20765;-82
2024/01/18 01:47:59;;;;;;;18.27;14.88;;;3.60;99.90;;;;;;4897733;29;20305;-78
2024/01/18 01:50:26;;;;;;;20.85;14.85;;;3.60;99.90;;;;;;4897983;29;20237;-81
2024/01/18 01:52:54;;;;;;;18.17;13.95;;;3.60;99.90;;;;;;4897070;29;20234;-82
2024/01/18 01:55:21;;;;;;;15.30;13.70;;;3.60;99.90;;;;;;4898069;29;20226;-81
2024/01/18 01:57:49;;;;;;;19.83;14.85;;;3.60;99.90;;;;;;4897863;29;20703;-78
2024/01/18 02:00:17;;;;;;;17.10;14.68;;;3.60;99.90;;;;;;4897516;29;20222;-81
2024/01/18 02:02:45;;;;;;;17.42;13.48;;;3.60;99.90;;;;;;4897989;29;20387;-82
2024/01/18 02:05:15;;;;;;;19.27;14.02;;;3.60;99.90;;;;;;4898333;29;20577;-78
2024/01/18 02:07:42;;;;;;;18.15;14.68;;;3.50;99.90;;;;;;4901807;29;20272;-77
2024/01/18 02:10:10;;;;;;;15.90;13.80;;;3.60;99.90;;;;;;4898511;29;20246;-77
2024/01/18 02:12:38;;;;;;;18.23;14.30;;;3.50;99.90;;;;;;4901455;29;20237;-81
2024/01/18 02:15:08;;;;;;;19.35;13.93;;;3.60;99.90;;;;;;4901184;29;20233;-77
2024/01/18 02:17:36;;;;;;;19.23;14.15;;;3.60;99.90;;;;;;4901677;29;20684;-81
2024/01/18 02:20:04;;;;;;;17.00;14.10;;;3.60;99.90;;;;;;4900854;29;20237;-78
2024/01/18 02:22:37;;;;;;;16.95;14.55;;;3.60;99.90;;;;;;4901438;29;20689;-81
2024/01/18 02:25:17;;;;;;;18.65;15.10;;;3.60;99.90;;;;;;4900892;29;20317;-80
2024/01/18 02:27:44;;;;;;;17.33;13.40;;;3.60;99.90;;;;;;4901151;29;20546;-81
2024/01/18 02:30:11;;;;;;;14.55;13.05;;;3.60;99.90;;;;;;4900803;29;20241;-81
2024/01/18 02:32:39;;;;;;;18.48;14.02;;;3.60;99.90;;;;;;4900971;29;20234;-77
2024/01/18 02:35:07;;;;;;;17.17;15.20;;;3.60;99.90;;;;;;4892519;29;20242;-76
2024/01/18 02:37:35;;;;;;;19.65;15.93;;;3.60;99.90;;;;;;4901169;29;20570;-77
2024/01/18 02:40:02;;;;;;;19.00;14.75;;;3.60;99.90;;;;;;4900568;29;20309;-77
2024/01/18 02:42:33;;;;;;;18.63;14.60;;;3.60;99.90;;;;;;4900584;29;20241;-80
2024/01/18 02:45:02;;;;;;;18.00;15.75;;;3.60;99.90;;;;;;4900553;29;20257;-76
2024/01/18 02:47:31;;;;;;;23.70;16.20;;;3.50;99.90;;;;;;4899326;29;20305;-81
2024/01/18 02:49:58;;;;;;;19.30;14.93;;;3.50;99.90;;;;;;4900482;29;20234;-77
2024/01/18 02:52:25;;;;;;;21.27;16.00;;;3.50;99.90;;;;;;4899889;29;20249;-81
2024/01/18 02:54:52;;;;;;;21.58;15.52;;;3.60;99.90;;;;;;4900754;29;20233;-78
2024/01/18 02:57:19;;;;;;;17.88;14.73;;;3.60;99.90;;;;;;4899973;29;20242;-80
2024/01/18 02:59:48;;;;;;;18.02;14.13;;;3.50;99.90;;;;;;4900777;29;20245;-81
2024/01/18 03:02:16;;;;;;;26.85;16.15;;;3.50;99.90;;;;;;4900259;29;20230;-81
2024/01/18 03:04:43;;;;;;;23.15;14.82;;;3.50;99.90;;;;;;4900314;29;20245;-77
2024/01/18 03:07:10;;;;;;;17.77;14.68;;;3.50;99.90;;;;;;4900211;29;20244;-77
2024/01/18 03:09:37;;;;;;;20.75;17.15;;;3.50;99.90;;;;;;4900718;29;20222;-77
2024/01/18 03:12:05;;;;;;;20.67;15.35;;;3.40;99.90;;;;;;4900213;29;20571;-78
2024/01/18 03:14:32;;;;;;;25.23;15.75;;;3.50;99.90;;;;;;4899958;29;20230;-77
2024/01/18 03:17:00;;;;;;;19.17;14.60;;;3.50;99.90;;;;;;4898966;29;20230;-77
2024/01/18 03:19:27;;;;;;;17.42;15.13;;;3.50;99.90;;;;;;4899877;29;20680;-81
2024/01/18 03:21:54;;;;;;;19.20;15.50;;;3.50;99.90;;;;;;4900159;29;20234;-77
2024/01/18 03:24:21;;;;;;;19.08;14.63;;;3.50;99.90;;;;;;4899947;29;20230;-81
2024/01/18 03:26:48;;;;;;;21.05;15.00;;;3.50;99.90;;;;;;4899362;29;20241;-77
2024/01/18 03:29:15;;;;;;;18.27;14.77;;;3.50;99.90;;;;;;4899586;29;20257;-77
2024/01/18 03:31:43;;;;;;;20.77;14.77;;;3.40;99.90;;;;;;4899962;29;20253;-77
2024/01/18 03:34:11;;;;;;;20.45;15.95;;;3.50;99.90;;;;;;4899709;29;20234;-80
2024/01/18 03:36:38;;;;;;;20.17;15.35;;;3.40;99.90;;;;;;4900465;29;20230;-81
2024/01/18 03:39:08;;;;;;;21.88;16.33;;;3.40;99.90;;;;;;4900385;29;20689;-81
2024/01/18 03:41:35;;;;;;;21.38;15.88;;;3.40;99.90;;;;;;4900107;29;21014;-77
2024/01/18 03:44:02;;;;;;;21.05;15.15;;;3.40;99.90;;;;;;4898162;29;20238;-77
2024/01/18 03:46:29;;;;;;;20.13;15.38;;;3.40;99.90;;;;;;4899656;29;20230;-81
2024/01/18 03:48:56;;;;;;;21.23;15.48;;;3.30;99.90;;;;;;4900034;29;20634;-81
2024/01/18 03:51:25;;;;;;;22.90;15.70;;;3.40;99.90;;;;;;4899135;29;20321;-77
2024/01/18 03:53:52;;;;;;;18.42;15.15;;;3.30;99.90;;;;;;4899960;29;20234;-81
2024/01/18 03:56:19;;;;;;;23.75;16.92;;;3.40;99.90;;;;;;4898946;29;20234;-81
2024/01/18 03:58:46;;;;;;;20.13;14.57;;;3.40;99.90;;;;;;4899937;29;20241;-81
2024/01/18 04:01:13;;;;;;;19.65;15.82;;;3.40;99.90;;;;;;4899605;29;20245;-81
2024/01/18 04:03:42;;;;;;;24.05;17.75;;;3.40;99.90;;;;;;4898913;29;20241;-77
2024/01/18 04:06:11;;;;;;;20.92;15.82;;;3.40;99.90;;;;;;4899425;29;20234;-77
2024/01/18 04:08:39;;;;;;;18.63;14.77;;;3.30;99.90;;;;;;4899655;29;20226;-81
2024/01/18 04:11:07;;;;;;;23.33;16.10;;;3.30;99.90;;;;;;4899262;29;20262;-76
2024/01/18 04:13:34;;;;;;;20.58;15.40;;;3.30;99.90;;;;;;4899346;29;20633;-80
2024/01/18 04:16:02;;;;;;;18.15;14.30;;;3.30;99.90;;;;;;4899672;29;20230;-80
2024/01/18 04:18:29;;;;;;;20.25;17.65;;;3.40;99.90;;;;;;4898724;29;20229;-80
2024/01/18 04:20:55;;;;;;;23.13;16.30;;;3.30;99.90;;;;;;4899243;29;20234;-77
2024/01/18 04:23:23;;;;;;;19.75;15.85;;;3.30;99.90;;;;;;4898521;29;20240;-81
2024/01/18 04:25:52;;;;;;;21.23;17.20;;;3.40;99.90;;;;;;4898626;29;20265;-78
2024/01/18 04:28:19;;;;;;;19.42;16.00;;;3.40;99.90;;;;;;4898586;29;20582;-77
2024/01/18 04:30:47;;;;;;;23.50;16.10;;;3.40;99.90;;;;;;4898882;29;20229;-77
2024/01/18 04:33:14;;;;;;;25.23;19.45;;;3.40;99.90;;;;;;4898870;29;20234;-81
2024/01/18 04:35:41;;;;;;;20.60;17.52;;;3.30;99.90;;;;;;4898631;29;20551;-77
2024/01/18 04:38:08;;;;;;;18.63;16.15;;;3.30;99.90;;;;;;4899556;29;20604;-80
2024/01/18 04:40:35;;;;;;;19.17;16.05;;;3.40;99.90;;;;;;4898824;29;20225;-80
2024/01/18 04:43:04;;;;;;;25.38;18.10;;;3.40;99.90;;;;;;4898339;29;20703;-77
2024/01/18 04:45:31;;;;;;;28.83;16.48;;;3.40;99.90;;;;;;4898460;29;20231;-77
2024/01/18 04:47:59;;;;;;;21.77;14.88;;;3.40;99.90;;;;;;4898891;29;20312;-81
2024/01/18 04:50:26;;;;;;;21.92;16.40;;;3.40;99.90;;;;;;4898354;29;20237;-77
2024/01/18 04:52:53;;;;;;;21.77;16.45;;;3.40;99.90;;;;;;4898218;29;20238;-81
2024/01/18 04:55:21;;;;;;;23.70;15.88;;;3.40;99.90;;;;;;4898320;29;20281;-81
2024/01/18 04:57:49;;;;;;;29.02;16.92;;;3.30;99.90;;;;;;4898573;29;20234;-81
2024/01/18 05:00:18;;;;;;;25.70;17.75;;;3.30;99.90;;;;;;4897912;29;20233;-77
2024/01/18 05:02:48;;;;;;;23.55;17.00;;;3.30;99.90;;;;;;4898069;29;20234;-77
2024/01/18 05:05:17;;;;;;;19.73;17.55;;;3.30;99.90;;;;;;4898121;29;20230;-77
2024/01/18 05:07:44;;;;;;;20.40;16.75;;;3.30;99.90;;;;;;4897826;29;20241;-77
2024/01/18 05:10:12;;;;;;;22.23;15.95;;;3.20;99.90;;;;;;4898252;29;20230;-77
2024/01/18 05:12:39;;;;;;;25.48;20.52;;;3.20;99.90;;;;;;4898234;29;20234;-80
2024/01/18 05:15:07;;;;;;;20.17;16.85;;;3.20;99.90;;;;;;4898410;29;20252;-81
2024/01/18 05:17:37;;;;;;;23.35;17.92;;;3.10;99.90;;;;;;4897873;29;20230;-81
2024/01/18 05:20:04;;;;;;;19.27;16.27;;;3.10;99.90;;;;;;4897877;29;20289;-80
2024/01/18 05:22:32;;;;;;;24.65;16.55;;;3.10;99.90;;;;;;4897692;29;20291;-77
2024/01/18 05:25:00;;;;;;;22.75;19.10;;;3.20;99.90;;;;;;4897576;29;20685;-77
2024/01/18 05:27:29;;;;;;;24.30;16.42;;;3.20;99.90;;;;;;4898129;29;20281;-76
2024/01/18 05:29:57;;;;;;;24.23;17.80;;;3.20;99.90;;;;;;4899084;29;20238;-76
2024/01/18 05:32:24;;;;;;;22.35;16.95;;;3.20;99.90;;;;;;4898053;29;20261;-80
2024/01/18 05:34:53;;;;;;;23.08;16.75;;;3.20;99.90;;;;;;4897979;29;20234;-76
2024/01/18 05:37:22;;;;;;;21.77;16.48;;;3.10;99.90;;;;;;4898601;29;20615;-77
2024/01/18 05:39:50;;;;;;;20.60;17.02;;;3.20;99.90;;;;;;4898208;29;20261;-77
2024/01/18 05:42:18;;;;;;;25.58;17.48;;;3.10;99.90;;;;;;4902043;29;20720;-77
2024/01/18 05:44:45;;;;;;;22.35;18.83;;;3.10;99.90;;;;;;4901672;29;20696;-81
2024/01/18 05:47:12;;;;;;;26.33;17.35;;;3.10;99.90;;;;;;4901847;29;20238;-77
2024/01/18 05:49:39;;;;;;;19.13;16.95;;;3.10;99.90;;;;;;4901717;29;20233;-77
2024/01/18 05:52:08;;;;;;;22.80;17.30;;;3.10;99.90;;;;;;4901957;29;20629;-77
2024/01/18 05:54:35;;;;;;;19.63;17.48;;;3.10;99.90;;;;;;4899874;29;20233;-80
2024/01/18 05:57:02;;;;;;;22.67;17.92;;;3.10;99.90;;;;;;4902161;29;20226;-80
2024/01/18 05:59:30;;;;;;;25.73;18.23;;;3.10;99.90;;;;;;4900810;29;20233;-80
2024/01/18 06:01:58;;;;;;;22.02;16.00;;;3.10;99.90;;;;;;4901570;29;20221;-81
2024/01/18 06:04:25;;;;;;;22.88;16.40;;;3.10;99.90;;;;;;4901488;29;20230;-80
2024/01/18 06:06:53;;;;;;;20.55;16.80;;;3.10;99.90;;;;;;4901239;29;20226;-80
2024/01/18 06:09:24;;;;;;;27.90;19.65;;;3.10;99.90;;;;;;4901647;29;20347;-80
2024/01/18 06:11:51;;;;;;;22.27;18.90;;;3.10;99.90;;;;;;4901081;29;20222;-81
2024/01/18 06:14:18;;;;;;;23.67;17.63;;;3.00;99.90;;;;;;4901857;29;20241;-81
2024/01/18 06:16:46;;;;;;;24.30;18.92;;;3.00;99.90;;;;;;4901021;29;20234;-81
2024/01/18 06:19:14;;;;;;;27.90;19.58;;;3.00;99.90;;;;;;4901863;29;20230;-81
2024/01/18 06:21:44;;;;;;;24.95;19.90;;;3.00;99.90;;;;;;4899693;29;20234;-77
2024/01/18 06:24:11;;;;;;;27.00;19.20;;;3.00;99.90;;;;;;4901323;29;20729;-77
2024/01/18 06:26:39;;;;;;;22.02;17.73;;;3.00;99.90;;;;;;4901120;29;20226;-81
2024/01/18 06:29:06;;;;;;;30.77;20.25;;;2.90;99.90;;;;;;4901359;29;20421;-81
2024/01/18 06:31:34;;;;;;;26.42;20.33;;;2.90;99.90;;;;;;4900658;29;20222;-81
2024/01/18 06:34:00;;;;;;;23.13;19.27;;;2.90;99.90;;;;;;4900885;29;20301;-80
2024/01/18 06:36:27;;;;;;;23.42;19.88;;;2.90;99.90;;;;;;4901064;29;20222;-77
2024/01/18 06:38:54;;;;;;;24.70;18.33;;;2.90;99.90;;;;;;4900729;29;20225;-81
2024/01/18 06:41:25;;;;;;;24.92;17.35;;;2.90;99.90;;;;;;4900759;29;20230;-77
2024/01/18 06:43:53;;;;;;;27.95;18.50;;;2.90;99.90;;;;;;4900356;29;20258;-81
2024/01/18 06:46:21;;;;;;;26.50;18.98;;;2.90;99.90;;;;;;4901485;29;20234;-77
2024/01/18 06:48:52;;;;;;;26.42;19.40;;;2.90;99.90;;;;;;4900153;29;20313;-77
2024/01/18 06:51:20;;;;;;;22.45;17.98;;;2.90;99.90;;;;;;4900510;29;20257;-77
2024/01/18 06:53:48;;;;;;;30.08;18.52;;;2.90;99.90;;;;;;4899529;29;20623;-77
2024/01/18 06:56:15;;;;;;;21.38;17.35;;;2.90;99.90;;;;;;4901114;29;20226;-76
2024/01/18 06:58:43;;;;;;;26.75;21.38;;;2.90;99.90;;;;;;4889541;29;20306;-77
2024/01/18 07:01:12;;;;;;;35.83;25.05;;;2.90;99.90;;;;;;4900525;29;20257;-77
2024/01/18 07:03:41;;;;;;;27.05;21.40;;;2.90;99.90;;;;;;4900492;29;20218;-76
2024/01/18 07:06:09;;;;;;;28.85;21.50;;;2.90;99.90;;;;;;4891723;29;20254;-77
2024/01/18 07:08:37;;;;;;;29.75;21.83;;;2.90;99.90;;;;;;4900387;29;20226;-81
2024/01/18 07:11:04;;;;;;;27.60;21.23;;;2.90;99.90;;;;;;4899195;29;20312;-81
2024/01/18 07:13:31;;;;;;;28.08;18.55;;;2.90;99.90;;;;;;4899983;29;20237;-81
2024/01/18 07:15:58;;;;;;;27.20;18.30;;;2.90;99.90;;;;;;4899640;29;20230;-81
2024/01/18 07:18:27;;;;;;;20.90;17.25;;;2.90;99.90;;;;;;4900352;29;20237;-81
2024/01/18 07:20:54;;;;;;;24.15;19.30;;;2.90;99.90;;;;;;4899744;29;20233;-77
2024/01/18 07:23:21;;;;;;;27.20;19.75;;;2.90;99.90;;;;;;4900461;29;20237;-78
2024/01/18 07:25:49;;;;;;;29.95;17.75;;;2.90;99.90;;;;;;4900064;29;20234;-76
2024/01/18 07:28:16;;;;;;;23.92;18.60;;;2.90;99.90;;;;;;4900375;29;20226;-81
2024/01/18 07:30:43;;;;;;;22.60;18.88;;;2.90;99.90;;;;;;4900042;29;20696;-80
2024/01/18 07:33:10;;;;;;;25.42;18.70;;;2.90;99.90;;;;;;4899544;29;20297;-81
2024/01/18 07:35:38;;;;;;;23.50;19.02;;;2.90;99.90;;;;;;4900254;29;20230;-81
2024/01/18 07:38:05;;;;;;;24.25;18.33;;;2.90;99.90;;;;;;4899732;29;20847;-81
2024/01/18 07:40:33;;;;;;;22.92;19.35;;;2.90;99.90;;;;;;4900094;29;20226;-81
2024/01/18 07:43:00;;;;;;;26.55;19.58;;;2.90;99.90;;;;;;4899253;29;20724;-81
2024/01/18 07:45:27;;;;;;;23.38;19.13;;;2.90;99.90;;;;;;4900039;29;20315;-80
2024/01/18 07:47:54;;;;;;;26.55;19.85;;;2.90;99.90;;;;;;4899302;29;20230;-80
2024/01/18 07:50:21;;;;;;;25.08;19.15;;;2.90;99.90;;;;;;4900095;29;20230;-81
2024/01/18 07:52:50;;;;;;;25.25;18.88;;;2.90;99.90;;;;;;4898764;29;20230;-81
2024/01/18 07:55:18;;;;;;;26.10;20.52;;;2.90;99.90;;;;;;4899390;29;20234;-77
2024/01/18 07:57:45;;;;;;;28.40;20.67;;;2.90;99.90;;;;;;4899611;29;20687;-77
2024/01/18 08:00:14;;;;;;;23.65;18.40;;;2.90;99.90;;;;;;4899243;29;20732;-77
2024/01/18 08:02:41;;;;;;;27.95;19.52;;;2.90;99.90;;;;;;4898783;29;20724;-77
2024/01/18 08:05:07;;;;;;;25.15;21.65;;;2.90;99.90;;;;;;4898596;29;20316;-77
2024/01/18 08:07:35;;;;;;;24.63;19.77;;;2.90;99.90;;;;;;4899534;29;20589;-78
2024/01/18 08:10:03;;;;;;;27.70;21.27;;;3.00;99.90;;;;;;4898952;29;20337;-82
2024/01/18 08:12:31;;;;;;;31.63;21.42;;;3.00;99.90;;;;;;4899376;29;20266;-81
2024/01/18 08:14:58;;;;;;;24.15;20.00;;;3.00;99.90;;;;;;4898954;29;20685;-81
2024/01/18 08:17:25;;;;;;;26.17;21.25;;;3.00;99.90;;;;;;4899203;29;20240;-81
2024/01/18 08:19:51;;;;;;;24.40;17.45;;;3.00;99.90;;;;;;4899268;29;20237;-82
2024/01/18 08:22:18;;;;;;;28.02;21.50;;;3.00;99.90;;;;;;4898924;29;20253;-81
2024/01/18 08:24:47;;;;;;;31.48;22.75;;;3.10;99.90;;;;;;4899244;29;20605;-82
2024/01/18 08:27:15;;;;;;;39.08;26.05;;;3.10;99.90;;;;;;4898627;29;20951;-82
2024/01/18 08:29:42;;;;;;;38.75;25.25;;;3.10;99.90;;;;;;4899213;29;20234;-81
2024/01/18 08:32:09;;;;;;;27.50;20.48;;;3.10;99.90;;;;;;4898390;29;20246;-81
2024/01/18 08:34:37;;;;;;;27.80;19.25;;;3.20;99.90;;;;;;4898960;29;20340;-82
2024/01/18 08:37:05;;;;;;;25.92;20.73;;;3.20;99.90;;;;;;4898546;29;20245;-81
2024/01/18 08:39:32;;;;;;;26.00;20.00;;;3.20;99.90;;;;;;4898815;29;20249;-81
2024/01/18 08:41:59;;;;;;;23.63;20.90;;;3.20;99.90;;;;;;4898483;29;20236;-81
2024/01/18 08:44:29;;;;;;;23.17;18.80;;;3.20;99.90;;;;;;4899173;29;20293;-81
2024/01/18 08:46:56;;;;;;;23.27;18.30;;;3.20;99.90;;;;;;4898435;29;20230;-81
2024/01/18 08:49:25;;;;;;;24.88;19.67;;;3.20;99.90;;;;;;4899159;29;20233;-81
2024/01/18 08:51:53;;;;;;;26.95;20.02;;;3.30;99.90;;;;;;4898350;29;20325;-77
2024/01/18 08:54:21;;;;;;;24.35;20.08;;;3.30;99.90;;;;;;4897865;29;20684;-77
2024/01/18 08:56:49;;;;;;;26.00;18.92;;;3.30;99.90;;;;;;4899060;29;20289;-77
2024/01/18 08:59:16;;;;;;;28.73;22.00;;;3.40;99.90;;;;;;4898415;29;20256;-77
2024/01/18 09:01:44;;;;;;;26.60;20.50;;;3.40;99.90;;;;;;4898343;29;20226;-77
2024/01/18 09:04:11;;;;;;;24.10;20.25;;;3.40;99.90;;;;;;4898000;29;20233;-77
2024/01/18 09:06:39;;;;;;;28.90;20.88;;;3.40;99.90;;;;;;4898137;29;20234;-77
2024/01/18 09:09:09;;;;;;;23.73;19.33;;;3.40;99.90;;;;;;4897815;29;20230;-77
2024/01/18 09:11:37;;;;;;;29.05;21.23;;;3.50;99.90;;;;;;4898034;29;20230;-77
2024/01/18 09:14:04;;;;;;;23.65;19.10;;;3.40;99.90;;;;;;4896953;29;20241;-77
2024/01/18 09:16:31;;;;;;;24.33;19.30;;;3.40;99.90;;;;;;4898435;29;20285;-77
2024/01/18 09:19:00;;;;;;;26.80;20.05;;;3.40;99.90;;;;;;4898518;29;20641;-77
2024/01/18 09:21:28;;;;;;;25.10;18.77;;;3.40;99.90;;;;;;4897389;29;20237;-77
2024/01/18 09:23:55;;;;;;;23.05;19.55;;;3.50;99.90;;;;;;4898326;29;20624;-76
2024/01/18 09:26:22;;;;;;;29.02;19.92;;;3.40;99.90;;;;;;4897968;29;20230;-76
2024/01/18 09:28:49;;;;;;;25.63;21.00;;;3.40;99.90;;;;;;4898081;29;20226;-76
2024/01/18 09:31:18;;;;;;;31.85;22.77;;;3.50;99.90;;;;;;4897000;29;20237;-77
2024/01/18 09:33:45;;;;;;;25.25;20.42;;;3.50;99.90;;;;;;4898085;29;20704;-81
2024/01/18 09:36:14;;;;;;;26.42;20.75;;;3.50;99.90;;;;;;4897727;29;20228;-78
2024/01/18 09:38:41;;;;;;;25.88;19.25;;;3.60;99.90;;;;;;4897255;29;20241;-78
2024/01/18 09:41:09;;;;;;;22.23;19.25;;;3.50;99.90;;;;;;4897793;29;20546;-77
2024/01/18 09:43:42;;;;;;;26.80;20.38;;;3.50;99.90;;;;;;4898133;29;20237;-77
2024/01/18 09:46:11;;;;;;;30.25;22.05;;;3.50;99.90;;;;;;4897508;29;20222;-77
2024/01/18 09:48:40;;;;;;;28.23;21.95;;;3.50;99.90;;;;;;4897928;29;20313;-77
2024/01/18 09:51:10;;;;;;;26.58;19.80;;;3.60;99.90;;;;;;4888191;29;20230;-77
2024/01/18 09:53:44;;;;;;;30.90;21.40;;;3.60;99.90;;;;;;4872266;29;20226;-76
2024/01/18 09:56:22;;;;;;;32.08;21.80;;;3.60;99.90;;;;;;4898109;29;20233;-77
2024/01/18 09:58:51;;;;;;;29.27;20.60;;;3.60;99.90;;;;;;4897147;29;20234;-81
2024/01/18 10:01:21;;;;;;;27.00;21.08;;;3.60;99.90;;;;;;4897889;29;20313;-78
2024/01/18 10:03:49;;;;;;;26.05;20.30;;;3.70;99.90;;;;;;4887532;29;20265;-81
2024/01/18 10:06:17;;;;;;;30.67;21.27;;;3.70;99.90;;;;;;4896800;29;20226;-81
2024/01/18 10:08:46;;;;;;;25.58;21.40;;;3.70;99.90;;;;;;4894970;29;20230;-77
2024/01/18 10:11:13;;;;;;;25.48;19.45;;;3.60;99.90;;;;;;4897904;29;20222;-77
2024/01/18 10:13:51;;;;;;;29.00;21.05;;;3.60;99.90;;;;;;4897126;29;20236;-81
2024/01/18 10:16:32;;;;;;;25.75;20.60;;;3.70;99.90;;;;;;4897466;29;20226;-82
2024/01/18 10:19:03;;;;;;;28.00;21.10;;;3.70;99.90;;;;;;4897339;29;20309;-78
2024/01/18 10:21:33;;;;;;;24.52;20.02;;;3.70;99.90;;;;;;4897730;29;20234;-77
2024/01/18 10:24:03;;;;;;;33.00;24.05;;;3.70;99.90;;;;;;4897409;29;20226;-77
2024/01/18 10:26:33;;;;;;;33.97;24.15;;;3.70;99.90;;;;;;4899308;29;20226;-77
2024/01/18 10:29:00;;;;;;;28.48;22.10;;;3.70;99.90;;;;;;4900579;29;20575;-77
2024/01/18 10:31:27;;;;;;;29.55;23.10;;;3.70;99.90;;;;;;4900892;29;20286;-81
2024/01/18 10:33:57;;;;;;;32.13;23.20;;;3.70;99.90;;;;;;4900442;29;20234;-81
2024/01/18 10:36:25;;;;;;;24.75;20.92;;;3.70;99.90;;;;;;4900928;29;20234;-77
2024/01/18 10:38:52;;;;;;;35.15;24.77;;;3.80;99.90;;;;;;4900714;29;20226;-80
2024/01/18 10:41:20;;;;;;;34.10;23.63;;;3.70;99.90;;;;;;4900923;29;20321;-81
2024/01/18 10:43:48;;;;;;;29.08;22.15;;;3.80;99.90;;;;;;4900452;29;20317;-82
2024/01/18 10:46:16;;;;;;;26.08;20.95;;;3.80;99.90;;;;;;4900778;29;20226;-81
2024/01/18 10:48:46;;;;;;;28.83;22.15;;;3.80;99.90;;;;;;4900778;29;20226;-81
2024/01/18 10:51:11;;;;;;;30.58;21.48;;;3.90;99.90;;;;;;4901027;29;20222;-81
2024/01/18 10:53:41;;;;;;;28.43;21.97;;;3.90;99.90;;;;;;4900570;29;20226;-78
2024/01/18 10:56:08;;;;;;;29.83;21.23;;;3.90;99.90;;;;;;4900652;29;20765;-81
2024/01/18 10:58:37;;;;;;;32.78;23.75;;;3.90;99.90;;;;;;4900845;29;20226;-82
2024/01/18 11:01:05;;;;;;;26.60;21.35;;;4.00;99.90;;;;;;4899024;29;20286;-78
2024/01/18 11:03:33;;;;;;;26.73;21.67;;;4.00;99.90;;;;;;4900591;29;20636;-82
2024/01/18 11:06:04;;;;;;;27.20;19.85;;;4.00;99.90;;;;;;4899810;29;20689;-78
2024/01/18 11:08:34;;;;;;;30.40;22.05;;;4.00;99.90;;;;;;4900489;29;20225;-78
2024/01/18 11:11:01;;;;;;;27.52;22.08;;;4.10;99.90;;;;;;4899657;29;20234;-78
2024/01/18 11:13:29;;;;;;;33.85;23.00;;;4.10;99.90;;;;;;4900197;29;20234;-77
2024/01/18 11:15:58;;;;;;;24.95;21.35;;;4.10;99.90;;;;;;4899723;29;20234;-81
2024/01/18 11:18:25;;;;;;;26.15;20.92;;;4.10;99.90;;;;;;4900447;29;20305;-81
2024/01/18 11:21:08;;;;;;;23.33;20.50;;;4.20;99.90;;;;;;4899740;29;20236;-82
2024/01/18 11:23:37;;;;;;;25.98;20.65;;;4.10;99.90;;;;;;4900184;29;20234;-77
2024/01/18 11:26:08;;;;;;;24.75;19.15;;;4.10;99.90;;;;;;4899811;29;20679;-78
2024/01/18 11:28:36;;;;;;;26.63;18.60;;;4.10;99.90;;;;;;4900246;29;20303;-78
2024/01/18 11:31:04;;;;;;;27.17;20.77;;;4.20;99.90;;;;;;4889527;29;20230;-82
2024/01/18 11:33:33;;;;;;;30.10;22.15;;;4.20;99.90;;;;;;4899367;29;20680;-80
2024/01/18 11:36:02;;;;;;;23.50;19.70;;;4.20;99.90;;;;;;4900003;29;20584;-81
2024/01/18 11:38:32;;;;;;;28.33;22.70;;;4.20;99.90;;;;;;4898498;29;20234;-82
2024/01/18 11:41:04;;;;;;;28.20;21.50;;;4.20;99.90;;;;;;4899716;29;20236;-79
2024/01/18 11:43:56;;;;;;;31.42;21.92;;;4.20;99.90;;;;;;4899637;29;20234;-78
2024/01/18 11:46:39;;;;;;;26.10;21.45;;;4.10;99.90;;;;;;4897859;29;20233;-78
2024/01/18 11:49:07;;;;;;;26.35;21.65;;;4.10;99.90;;;;;;4900502;29;20626;-81
2024/01/18 11:51:35;;;;;;;29.45;21.13;;;4.20;99.90;;;;;;4898951;29;20226;-81
2024/01/18 11:54:09;;;;;;;26.63;21.35;;;4.10;99.90;;;;;;4899749;29;20234;-82
2024/01/18 11:56:38;;;;;;;27.48;21.25;;;4.10;99.90;;;;;;4898677;29;20229;-77
2024/01/18 11:59:05;;;;;;;33.10;22.60;;;4.00;99.90;;;;;;4899778;29;20229;-77
2024/01/18 12:01:37;;;;;;;25.02;21.67;;;4.00;99.90;;;;;;4882815;29;20306;-78
2024/01/18 12:04:05;;;;;;;24.63;20.40;;;4.00;99.90;;;;;;4899458;29;20234;-81
2024/01/18 12:06:33;;;;;;;25.27;22.27;;;4.00;99.90;;;;;;4898885;29;20237;-81
2024/01/18 12:09:00;;;;;;;24.50;20.30;;;4.00;99.90;;;;;;4899399;29;20226;-81
2024/01/18 12:11:28;;;;;;;27.80;20.80;;;4.00;99.90;;;;;;4898778;29;20226;-77
2024/01/18 12:13:55;;;;;;;25.40;21.05;;;3.90;99.90;;;;;;4899308;29;20230;-77
2024/01/18 12:16:23;;;;;;;25.38;19.75;;;4.00;99.90;;;;;;4898994;29;20250;-81
2024/01/18 12:18:53;;;;;;;30.38;20.98;;;3.90;99.90;;;;;;4906826;29;20663;-78
2024/01/18 12:21:20;;;;;;;24.80;19.95;;;3.80;99.90;;;;;;4909437;29;20230;-77
2024/01/18 12:23:48;;;;;;;27.48;22.65;;;3.80;99.90;;;;;;4910233;29;20259;-81
2024/01/18 12:26:17;;;;;;;25.38;20.20;;;3.80;99.90;;;;;;4918019;29;20684;-81
2024/01/18 12:28:44;;;;;;;27.70;21.55;;;3.90;99.90;;;;;;4900191;29;20325;-81
2024/01/18 12:31:11;;;;;;;29.25;22.80;;;3.90;99.90;;;;;;4899088;29;20241;-78
2024/01/18 12:33:38;;;;;;;26.52;21.27;;;3.80;99.90;;;;;;4897426;29;20321;-77
2024/01/18 12:36:07;;;;;;;27.08;20.08;;;3.90;99.90;;;;;;4906985;29;20225;-76
2024/01/18 12:38:34;;;;;;;28.73;20.58;;;3.80;99.90;;;;;;4917127;29;20229;-77
2024/01/18 12:41:01;;;;;;;32.20;23.30;;;3.80;99.90;;;;;;4916243;29;20225;-82